Etoile Des Vents — FGH2038 — position and weather

sailwx.info

Track history (hours):
 
Tides and Currents Weather Stations Pressure Air Temp Water Temp Dewpoint Dewpoint Depression Visibility Wind Speed Wind Dir Waves Ship Positions

Etoile Des Vents

Last reported at 2017-Oct-14 16:37 UTC. Time now 2017-Nov-20 23:10 UTC.
Position N 47°43' W 003°22'.
Warning: this ship's position is 37 days out of date.

Length 13 m.

Type: Sailing vessel. MMSI: 227071280.

Date/timePositionNaut miles runAvg speedWind from/ knotsBaromVisibWave heightAir tempDewpointWater temp
2017-Oct-14 16:37N 47°43' W 003°22'0 0.0
2017-Oct-14 16:29N 47°43' W 003°22'0 0.2
2017-Oct-14 16:00N 47°43' W 003°22'2 3.4
2017-Oct-14 15:30N 47°42' W 003°23'2 4.8
2017-Oct-14 15:00N 47°40' W 003°26'0 0.8
2017-Oct-14 14:30N 47°40' W 003°25'1 1.9
2017-Oct-14 14:01N 47°40' W 003°27'1 1.4
2017-Oct-14 13:30N 47°40' W 003°27'2 3.9
2017-Oct-14 13:00N 47°41' W 003°25'3 5.1
2017-Oct-14 12:30N 47°43' W 003°22'1 1.2
2017-Oct-14 11:58N 47°43' W 003°22'  
2017-Oct-06 15:23N 47°43' W 003°22'0 0.6
2017-Oct-06 15:00N 47°43' W 003°22'3 5.3
2017-Oct-06 14:30N 47°41' W 003°24'3 5.1
2017-Oct-06 14:00N 47°38' W 003°25'1 2.8
2017-Oct-06 13:30N 47°37' W 003°25'2 5.0
2017-Oct-06 13:00N 47°37' W 003°29'3 2.9
2017-Oct-06 12:04N 47°39' W 003°31'0 5.4
2017-Oct-06 12:00N 47°39' W 003°31'3 5.2
2017-Oct-06 11:30N 47°40' W 003°27'3 5.5
2017-Oct-06 11:00N 47°41' W 003°24'2 4.2
2017-Oct-06 10:30N 47°43' W 003°22'0 0.3
2017-Oct-06 10:00N 47°43' W 003°22'0 0.0
2017-Oct-06 09:30N 47°43' W 003°22'0 0.0
2017-Oct-06 09:00N 47°43' W 003°22'  
Track history (hours):
 
Tides and Currents Weather Stations Pressure Air Temp Water Temp Dewpoint Dewpoint Depression Visibility Wind Speed Wind Dir Waves Ship Positions

Etoile Des Vents

Last reported at 2017-Oct-14 16:37 UTC. Time now 2017-Nov-20 23:10 UTC.
Position N 47°43' W 003°22'.
Warning: this ship's position is 37 days out of date.

Length 13 m.

Type: Sailing vessel. MMSI: 227071280.

Date/timePositionNaut miles runAvg speedWind from/ knotsBaromVisibWave heightAir tempDewpointWater temp
2017-Oct-14 16:37N 47°43' W 003°22'0 0.0
2017-Oct-14 16:29N 47°43' W 003°22'0 0.2
2017-Oct-14 16:00N 47°43' W 003°22'2 3.4
2017-Oct-14 15:30N 47°42' W 003°23'2 4.8
2017-Oct-14 15:00N 47°40' W 003°26'0 0.8
2017-Oct-14 14:30N 47°40' W 003°25'1 1.9
2017-Oct-14 14:01N 47°40' W 003°27'1 1.4
2017-Oct-14 13:30N 47°40' W 003°27'2 3.9
2017-Oct-14 13:00N 47°41' W 003°25'3 5.1
2017-Oct-14 12:30N 47°43' W 003°22'1 1.2
2017-Oct-14 11:58N 47°43' W 003°22'  
2017-Oct-06 15:23N 47°43' W 003°22'0 0.6
2017-Oct-06 15:00N 47°43' W 003°22'3 5.3
2017-Oct-06 14:30N 47°41' W 003°24'3 5.1
2017-Oct-06 14:00N 47°38' W 003°25'1 2.8
2017-Oct-06 13:30N 47°37' W 003°25'2 5.0
2017-Oct-06 13:00N 47°37' W 003°29'3 2.9
2017-Oct-06 12:04N 47°39' W 003°31'0 5.4
2017-Oct-06 12:00N 47°39' W 003°31'3 5.2
2017-Oct-06 11:30N 47°40' W 003°27'3 5.5
2017-Oct-06 11:00N 47°41' W 003°24'2 4.2
2017-Oct-06 10:30N 47°43' W 003°22'0 0.3
2017-Oct-06 10:00N 47°43' W 003°22'0 0.0
2017-Oct-06 09:30N 47°43' W 003°22'0 0.0
2017-Oct-06 09:00N 47°43' W 003°22'  

Dump ship's entire track history